Time;durP1;ratioP1;P1;durP2;ratioP2;P2;SDS_P1;SDS_P2;PMS_P1;PMS_P2;Temp;Humidity;BMP_temperature;BMP_pressure;BME280_temperature;BME280_humidity;BME280_pressure;Samples;Min_cycle;Max_cycle;Signal;HPM_P1;HPM_P2
2022/01/28 00:05:16;;;;;;;41.10;18.65;;;0.30;99.90;;;;;;4940476;29;20118;-87
2022/01/28 00:07:42;;;;;;;41.30;18.67;;;0.30;99.90;;;;;;4939750;29;20454;-88
2022/01/28 00:10:08;;;;;;;43.88;19.65;;;0.30;99.90;;;;;;4937300;29;20067;-87
2022/01/28 00:12:37;;;;;;;44.38;21.05;;;0.40;99.90;;;;;;4940438;29;20035;-87
2022/01/28 00:15:10;;;;;;;44.15;19.17;;;0.50;99.90;;;;;;4940600;29;20047;-87
2022/01/28 00:18:25;;;;;;;40.92;18.02;;;0.60;99.90;;;;;;4940310;29;20027;-87
2022/01/28 00:37:24;;;;;;;48.15;19.95;;;0.60;99.90;;;;;;4951984;29;20514;-87
2022/01/28 00:39:50;;;;;;;45.55;18.88;;;0.50;99.90;;;;;;4939577;29;20039;-87
2022/01/28 00:42:17;;;;;;;43.50;20.23;;;0.50;99.90;;;;;;4939183;29;20052;-87
2022/01/28 00:44:43;;;;;;;56.15;26.65;;;1.20;99.90;;;;;;4940012;29;20027;-87
2022/01/28 00:47:09;;;;;;;47.83;21.38;;;0.60;99.90;;;;;;4923833;29;20408;-87
2022/01/28 00:49:35;;;;;;;45.22;20.02;;;1.10;99.90;;;;;;4938133;29;20024;-87
2022/01/28 00:52:00;;;;;;;47.45;20.95;;;0.60;99.90;;;;;;4937554;29;20035;-87
2022/01/28 00:54:26;;;;;;;46.80;20.63;;;0.50;99.90;;;;;;4940309;29;20031;-87
2022/01/28 00:56:52;;;;;;;50.67;21.13;;;0.70;99.90;;;;;;4939663;29;20416;-87
2022/01/28 00:59:18;;;;;;;43.28;19.63;;;0.90;99.90;;;;;;4939554;29;20028;-87
2022/01/28 01:01:44;;;;;;;45.88;20.02;;;0.60;99.90;;;;;;4938760;29;20182;-87
2022/01/28 01:04:09;;;;;;;47.08;20.25;;;0.60;99.90;;;;;;4936684;29;20027;-87
2022/01/28 01:06:35;;;;;;;42.78;19.13;;;0.50;99.90;;;;;;4939778;29;20090;-87
2022/01/28 01:09:02;;;;;;;48.53;20.27;;;0.50;99.90;;;;;;4923839;29;20054;-87
2022/01/28 01:11:28;;;;;;;51.58;22.77;;;0.50;99.90;;;;;;4923216;29;20476;-87
2022/01/28 01:13:56;;;;;;;47.03;20.52;;;0.50;99.90;;;;;;4923359;29;20050;-87
2022/01/28 01:16:31;;;;;;;47.35;21.88;;;0.50;99.90;;;;;;4935402;29;20031;-87
2022/01/28 01:21:30;;;;;;;53.83;22.30;;;1.00;99.90;;;;;;4938462;29;20023;-87
2022/01/28 01:23:58;;;;;;;58.28;25.10;;;1.20;99.90;;;;;;4938611;29;20473;-87
2022/01/28 01:26:36;;;;;;;49.90;23.05;;;0.50;99.90;;;;;;4938969;29;20027;-87
2022/01/28 01:29:06;;;;;;;58.40;23.88;;;0.40;99.90;;;;;;4939000;29;20035;-87
2022/01/28 01:31:32;;;;;;;48.45;22.48;;;0.50;99.90;;;;;;4936856;29;20075;-87
2022/01/28 01:34:07;;;;;;;56.10;23.58;;;0.60;99.90;;;;;;4937253;29;20036;-87
2022/01/28 01:36:33;;;;;;;55.13;22.55;;;0.60;99.90;;;;;;4938229;29;20118;-87
2022/01/28 01:38:58;;;;;;;57.45;23.85;;;0.50;99.90;;;;;;4938334;29;20106;-87
2022/01/28 01:42:32;;;;;;;51.72;22.27;;;1.10;99.90;;;;;;4938518;29;20071;-87
2022/01/28 01:52:54;;;;;;;56.70;23.75;;;0.60;99.90;;;;;;4871859;29;20562;-87
2022/01/28 01:55:20;;;;;;;55.97;22.83;;;1.10;99.90;;;;;;4875587;29;20049;-87
2022/01/28 01:57:45;;;;;;;67.90;25.13;;;1.20;99.90;;;;;;4872918;29;20036;-87
2022/01/28 02:00:13;;;;;;;62.63;25.30;;;0.60;99.90;;;;;;4871503;29;20033;-87
2022/01/28 02:02:38;;;;;;;62.72;25.65;;;0.60;99.90;;;;;;4870810;29;20036;-87
2022/01/28 02:05:05;;;;;;;57.35;24.55;;;0.60;99.90;;;;;;4871555;29;20033;-87
2022/01/28 02:07:30;;;;;;;62.28;24.77;;;0.60;99.90;;;;;;4875808;29;20056;-87
2022/01/28 02:09:56;;;;;;;56.47;23.05;;;0.60;99.90;;;;;;4875451;29;20037;-87
2022/01/28 02:12:22;;;;;;;59.03;23.30;;;1.10;99.90;;;;;;4871802;29;20033;-87
2022/01/28 02:14:48;;;;;;;57.63;24.00;;;0.60;99.90;;;;;;4870809;29;20049;-87
2022/01/28 02:17:14;;;;;;;54.72;23.58;;;0.60;99.90;;;;;;4875537;29;20080;-87
2022/01/28 02:19:40;;;;;;;52.17;22.17;;;1.10;99.90;;;;;;4858021;29;20037;-87
2022/01/28 02:22:06;;;;;;;51.67;22.45;;;1.10;99.90;;;;;;4874105;29;20043;-87
2022/01/28 02:24:41;;;;;;;54.03;22.38;;;1.20;99.90;;;;;;4861491;29;20021;-87
2022/01/28 02:27:09;;;;;;;51.67;22.95;;;0.70;99.90;;;;;;4900054;29;20428;-87
2022/01/28 02:29:35;;;;;;;50.42;22.35;;;1.40;99.90;;;;;;4922237;29;20617;-87
2022/01/28 02:32:04;;;;;;;47.53;21.42;;;0.70;99.90;;;;;;4938024;29;20043;-87
2022/01/28 02:34:30;;;;;;;44.97;20.40;;;0.70;99.90;;;;;;4935848;29;20099;-87
2022/01/28 02:36:56;;;;;;;48.72;22.00;;;0.70;99.90;;;;;;4935747;29;20067;-87
2022/01/28 02:39:22;;;;;;;48.95;22.23;;;0.80;99.90;;;;;;4938468;29;20094;-87
2022/01/28 02:41:52;;;;;;;50.28;21.85;;;0.80;99.90;;;;;;4938135;29;20051;-87
2022/01/28 02:44:23;;;;;;;52.83;22.65;;;1.50;99.90;;;;;;4937952;29;20444;-87
2022/01/28 02:46:58;;;;;;;49.90;22.40;;;0.90;99.90;;;;;;4937522;29;20070;-87
2022/01/28 02:49:27;;;;;;;50.63;21.52;;;0.90;99.90;;;;;;4920475;29;20024;-87
2022/01/28 02:51:54;;;;;;;46.90;20.88;;;1.40;99.90;;;;;;4936514;29;20043;-87
2022/01/28 02:54:19;;;;;;;51.85;23.40;;;1.10;99.90;;;;;;4938169;29;20043;-87
2022/01/28 02:56:52;;;;;;;44.90;22.42;;;1.40;99.90;;;;;;4938152;29;20020;-87
2022/01/28 02:59:19;;;;;;;50.97;23.73;;;0.90;99.90;;;;;;4938037;29;20400;-87
2022/01/28 03:01:45;;;;;;;53.03;22.48;;;0.90;99.90;;;;;;4936839;29;20074;-87
2022/01/28 03:04:17;;;;;;;49.45;22.20;;;1.00;99.90;;;;;;4934773;29;20485;-87
2022/01/28 03:06:42;;;;;;;47.42;22.65;;;1.50;99.90;;;;;;4937840;29;20110;-87
2022/01/28 03:09:16;;;;;;;50.17;23.50;;;1.60;99.90;;;;;;4937796;29;20118;-87
2022/01/28 03:11:44;;;;;;;48.28;22.48;;;0.90;99.90;;;;;;4937591;29;20082;-87
2022/01/28 03:16:54;;;;;;;51.25;22.20;;;0.80;99.90;;;;;;4939803;29;20034;-87
2022/01/28 03:19:23;;;;;;;55.38;23.77;;;1.40;99.90;;;;;;4937624;29;20067;-87
2022/01/28 03:21:57;;;;;;;53.55;22.70;;;1.50;99.90;;;;;;4940850;29;20062;-86
2022/01/28 03:24:27;;;;;;;50.28;24.63;;;1.40;99.90;;;;;;4941510;29;20039;-87
2022/01/28 03:27:01;;;;;;;46.22;22.88;;;1.40;99.90;;;;;;4941414;29;20374;-87
2022/01/28 03:29:26;;;;;;;44.45;20.80;;;0.80;99.90;;;;;;4941572;29;20114;-87
2022/01/28 03:31:52;;;;;;;45.90;22.58;;;0.80;99.90;;;;;;4940913;29;20584;-87
2022/01/28 03:34:18;;;;;;;50.65;23.38;;;0.80;99.90;;;;;;4937275;29;20040;-87
2022/01/28 03:36:44;;;;;;;46.85;22.27;;;1.40;99.90;;;;;;4941271;29;20065;-87
2022/01/28 03:39:11;;;;;;;50.53;22.65;;;1.40;99.90;;;;;;4941790;29;20075;-87
2022/01/28 03:41:38;;;;;;;43.38;21.30;;;1.30;99.90;;;;;;4940933;29;20091;-87
2022/01/28 03:44:04;;;;;;;45.00;21.52;;;1.30;99.90;;;;;;4940737;29;20050;-87
2022/01/28 03:46:30;;;;;;;51.00;22.67;;;0.80;99.90;;;;;;4937999;29;20035;-87
2022/01/28 03:48:56;;;;;;;46.00;23.77;;;0.70;99.90;;;;;;4939541;29;20031;-87
2022/01/28 03:51:22;;;;;;;44.92;21.52;;;0.60;99.90;;;;;;4941333;29;20370;-87
2022/01/28 03:53:49;;;;;;;47.17;21.73;;;0.70;99.90;;;;;;4940873;29;20027;-87
2022/01/28 03:56:15;;;;;;;45.25;21.85;;;0.60;99.90;;;;;;4940845;29;20051;-87
2022/01/28 03:58:41;;;;;;;43.33;22.42;;;0.70;99.90;;;;;;4939413;29;20055;-87
2022/01/28 04:01:14;;;;;;;42.08;21.92;;;0.60;99.90;;;;;;4937816;29;20425;-87
2022/01/28 04:03:47;;;;;;;43.83;21.20;;;0.50;99.90;;;;;;4941198;29;20032;-87
2022/01/28 04:11:28;;;;;;;48.08;22.98;;;0.60;99.90;;;;;;4941085;29;20405;-87
2022/01/28 04:13:57;;;;;;;49.55;22.33;;;1.10;99.90;;;;;;4940260;29;20521;-87
2022/01/28 04:18:48;;;;;;;45.83;23.73;;;0.50;99.90;;;;;;4940343;29;20111;-87
2022/01/28 04:21:15;;;;;;;49.42;23.33;;;0.60;99.90;;;;;;4940845;29;20031;-87
2022/01/28 04:23:41;;;;;;;43.05;22.02;;;0.60;99.90;;;;;;4940697;29;20035;-87
2022/01/28 04:26:06;;;;;;;50.92;22.98;;;0.50;99.90;;;;;;4939444;29;20047;-87
2022/01/28 04:28:32;;;;;;;47.72;23.02;;;0.60;99.90;;;;;;4937564;29;20024;-87
2022/01/28 04:30:58;;;;;;;53.08;22.55;;;1.00;99.90;;;;;;4939419;29;20480;-87
2022/01/28 04:33:23;;;;;;;50.45;24.67;;;0.70;99.90;;;;;;4939557;29;20053;-87
2022/01/28 04:35:53;;;;;;;53.63;23.27;;;1.40;99.90;;;;;;4924001;29;20130;-87
2022/01/28 04:38:35;;;;;;;57.95;25.90;;;1.30;99.90;;;;;;4940703;29;20020;-87
2022/01/28 04:43:34;;;;;;;58.10;24.65;;;0.50;99.90;;;;;;4936819;29;20031;-87
2022/01/28 05:27:23;;;;;;;65.70;28.05;;;1.20;99.90;;;;;;4899922;29;20043;-87
2022/01/28 05:29:48;;;;;;;65.00;27.95;;;1.40;99.90;;;;;;4899334;29;20036;-88
2022/01/28 05:32:14;;;;;;;72.78;28.23;;;1.00;99.90;;;;;;4899753;29;20039;-89
2022/01/28 05:34:40;;;;;;;67.88;28.20;;;0.80;99.90;;;;;;4927965;29;20078;-88
2022/01/28 05:37:07;;;;;;;65.30;28.85;;;1.80;99.90;;;;;;4936132;29;20031;-86
2022/01/28 05:39:33;;;;;;;68.93;28.25;;;1.50;99.90;;;;;;4939975;29;20034;-87
2022/01/28 05:41:59;;;;;;;72.10;27.83;;;1.30;99.90;;;;;;4939109;29;20126;-87
2022/01/28 05:44:27;;;;;;;73.68;27.95;;;1.80;99.90;;;;;;4938763;29;20110;-84
2022/01/28 05:46:56;;;;;;;72.35;27.15;;;1.90;99.90;;;;;;4938458;29;20824;-88
2022/01/28 05:49:22;;;;;;;66.55;28.20;;;1.70;99.90;;;;;;4935503;29;20043;-87
2022/01/28 05:51:48;;;;;;;76.53;30.15;;;1.20;99.90;;;;;;4921820;29;20035;-87
2022/01/28 05:54:14;;;;;;;80.05;29.42;;;1.20;99.90;;;;;;4938539;29;20038;-87
2022/01/28 05:56:40;;;;;;;69.32;29.33;;;1.10;99.90;;;;;;4938156;29;20051;-87
2022/01/28 05:59:05;;;;;;;73.40;29.92;;;1.20;99.90;;;;;;4922943;29;20519;-85
2022/01/28 06:01:31;;;;;;;78.68;30.35;;;1.80;99.90;;;;;;4935718;29;20126;-85
2022/01/28 06:03:57;;;;;;;61.20;27.95;;;1.20;99.90;;;;;;4937398;29;20026;-85
2022/01/28 06:06:24;;;;;;;71.35;29.10;;;1.80;99.90;;;;;;4939288;29;20042;-86
2022/01/28 06:08:51;;;;;;;70.40;29.38;;;1.10;99.90;;;;;;4938282;29;20027;-85
2022/01/28 06:11:18;;;;;;;75.07;28.52;;;1.80;99.90;;;;;;4938069;29;20056;-87
2022/01/28 06:13:44;;;;;;;71.40;28.38;;;1.80;99.90;;;;;;4937086;29;20066;-87
2022/01/28 06:16:14;;;;;;;79.00;32.53;;;1.10;99.90;;;;;;4933970;29;20047;-87
2022/01/28 06:18:40;;;;;;;75.05;29.88;;;1.20;99.90;;;;;;4921602;29;20132;-87
2022/01/28 06:21:05;;;;;;;77.93;29.45;;;1.30;99.90;;;;;;4938332;29;20095;-86
2022/01/28 06:23:32;;;;;;;76.32;32.72;;;2.00;99.90;;;;;;4921888;29;20508;-86
2022/01/28 06:25:58;;;;;;;79.15;30.48;;;1.30;99.90;;;;;;4937693;29;20027;-87
2022/01/28 06:28:24;;;;;;;80.13;32.00;;;1.50;99.90;;;;;;4934728;29;20084;-87
2022/01/28 06:30:49;;;;;;;78.43;30.08;;;1.20;99.90;;;;;;4937919;29;20042;-87
2022/01/28 06:33:16;;;;;;;81.93;30.52;;;1.50;99.90;;;;;;4949115;29;20031;-87
2022/01/28 06:35:43;;;;;;;77.38;30.30;;;2.00;99.90;;;;;;4942137;29;20047;-87
2022/01/28 06:38:09;;;;;;;71.68;29.48;;;2.00;99.90;;;;;;4938136;29;20545;-87
2022/01/28 06:40:35;;;;;;;74.70;30.25;;;1.40;99.90;;;;;;4935405;29;20110;-87
2022/01/28 06:43:00;;;;;;;73.13;29.98;;;1.40;99.90;;;;;;4936410;29;20159;-87
2022/01/28 06:45:26;;;;;;;117.18;50.75;;;1.90;99.90;;;;;;4937876;29;20039;-87
2022/01/28 06:47:52;;;;;;;91.07;36.95;;;2.10;99.90;;;;;;4937409;29;20024;-87
2022/01/28 06:50:17;;;;;;;81.30;32.53;;;1.40;99.90;;;;;;4938108;29;20086;-87
2022/01/28 06:52:44;;;;;;;78.93;31.55;;;1.40;99.90;;;;;;4936709;29;20443;-87
2022/01/28 06:55:11;;;;;;;80.45;31.27;;;1.90;99.90;;;;;;4933649;29;20050;-87
2022/01/28 06:57:37;;;;;;;84.68;34.22;;;1.40;99.90;;;;;;4938262;29;20035;-87
2022/01/28 07:00:04;;;;;;;80.22;30.60;;;1.40;99.90;;;;;;4937380;29;20040;-87
2022/01/28 07:02:30;;;;;;;75.18;31.35;;;1.50;99.90;;;;;;4937840;29;20027;-87
2022/01/28 07:04:56;;;;;;;78.20;32.03;;;1.50;99.90;;;;;;4937709;29;20380;-87
2022/01/28 07:07:24;;;;;;;77.97;30.35;;;1.50;99.90;;;;;;4934034;29;20405;-87
2022/01/28 07:09:50;;;;;;;76.57;28.98;;;2.00;99.90;;;;;;4937558;29;20027;-87
2022/01/28 07:12:16;;;;;;;82.20;30.38;;;1.70;99.90;;;;;;4938077;29;20138;-86
2022/01/28 07:14:42;;;;;;;87.10;31.08;;;2.10;99.90;;;;;;4943646;29;20035;-87
2022/01/28 07:17:08;;;;;;;90.78;35.78;;;1.80;99.90;;;;;;4946323;29;20070;-87
2022/01/28 07:19:33;;;;;;;80.38;29.15;;;2.30;99.90;;;;;;4935895;29;20038;-87
2022/01/28 07:21:59;;;;;;;83.95;30.88;;;1.90;99.90;;;;;;4936292;29;20039;-87
2022/01/28 07:24:25;;;;;;;96.97;35.22;;;2.40;99.90;;;;;;4937562;29;20032;-86
2022/01/28 07:26:51;;;;;;;98.53;36.97;;;2.40;99.90;;;;;;4936964;29;20358;-87
2022/01/28 07:29:17;;;;;;;97.07;34.03;;;1.80;99.90;;;;;;4937229;29;20075;-87
2022/01/28 07:31:43;;;;;;;88.22;33.47;;;2.20;99.90;;;;;;4921139;29;20027;-87
2022/01/28 07:34:09;;;;;;;86.20;31.05;;;2.20;99.90;;;;;;4917121;29;20044;-87
2022/01/28 07:36:36;;;;;;;93.30;33.58;;;1.90;99.90;;;;;;4938060;29;20115;-87
2022/01/28 07:39:05;;;;;;;84.70;31.40;;;1.90;99.90;;;;;;4937300;29;20481;-87
2022/01/28 07:41:32;;;;;;;85.13;33.55;;;1.60;99.90;;;;;;4936836;29;20040;-87
2022/01/28 07:43:58;;;;;;;78.45;31.15;;;1.60;99.90;;;;;;4937385;29;20046;-86
2022/01/28 07:46:23;;;;;;;76.35;29.90;;;2.20;99.90;;;;;;4934066;29;20032;-85
2022/01/28 07:48:50;;;;;;;76.80;30.73;;;1.60;99.90;;;;;;4937876;29;20040;-85
2022/01/28 07:51:16;;;;;;;91.40;33.75;;;2.20;99.90;;;;;;4937428;29;20389;-85
2022/01/28 07:53:41;;;;;;;84.25;33.17;;;1.70;99.90;;;;;;4937141;29;20031;-85
2022/01/28 07:56:07;;;;;;;84.20;33.03;;;2.20;99.90;;;;;;4937081;29;20443;-85
2022/01/28 07:58:33;;;;;;;87.72;31.85;;;1.90;99.90;;;;;;4934807;29;20036;-85
2022/01/28 08:00:58;;;;;;;79.13;31.63;;;2.00;99.90;;;;;;4938242;28;20503;-85
2022/01/28 08:03:24;;;;;;;78.75;31.23;;;1.50;99.90;;;;;;4940955;29;20071;-85
2022/01/28 08:05:50;;;;;;;84.55;32.53;;;1.50;99.90;;;;;;4940918;29;20027;-86
2022/01/28 08:08:19;;;;;;;80.20;33.30;;;1.90;99.90;;;;;;4940587;29;20506;-86
2022/01/28 08:10:46;;;;;;;78.78;31.33;;;1.60;99.90;;;;;;4939160;29;20431;-85
2022/01/28 08:13:12;;;;;;;71.78;30.85;;;2.20;99.90;;;;;;4937340;29;20119;-85
2022/01/28 08:15:39;;;;;;;78.20;30.90;;;1.50;99.90;;;;;;4941288;29;20119;-85
2022/01/28 08:18:05;;;;;;;75.25;31.45;;;1.50;99.90;;;;;;4940307;29;20035;-85
2022/01/28 08:20:31;;;;;;;75.55;29.38;;;2.30;99.90;;;;;;4940116;29;20481;-85
2022/01/28 08:22:57;;;;;;;76.55;30.98;;;2.20;99.90;;;;;;4940199;29;20078;-84
2022/01/28 08:25:25;;;;;;;74.53;31.02;;;1.70;99.90;;;;;;4935961;29;20073;-85
2022/01/28 08:27:52;;;;;;;74.75;30.73;;;2.30;99.90;;;;;;4940454;29;20024;-87
2022/01/28 08:30:23;;;;;;;75.63;29.85;;;2.30;99.90;;;;;;4940660;29;20086;-87
2022/01/28 08:32:49;;;;;;;85.03;35.95;;;1.70;99.90;;;;;;4940072;29;20042;-87
2022/01/28 08:35:17;;;;;;;82.82;35.60;;;1.70;99.90;;;;;;4940264;29;20040;-88
2022/01/28 08:37:43;;;;;;;92.35;38.05;;;1.60;99.90;;;;;;4938819;29;20058;-87
2022/01/28 08:40:12;;;;;;;89.03;36.58;;;2.10;99.90;;;;;;4936329;29;20023;-86
2022/01/28 08:42:38;;;;;;;84.60;36.17;;;1.80;99.90;;;;;;4940689;29;20048;-86
2022/01/28 08:45:05;;;;;;;79.55;33.97;;;1.70;99.90;;;;;;4939734;29;20534;-87
2022/01/28 08:47:30;;;;;;;89.65;35.58;;;1.70;99.90;;;;;;4939858;29;20028;-87
2022/01/28 08:49:56;;;;;;;84.47;34.50;;;2.20;99.90;;;;;;4939963;29;20420;-87
2022/01/28 08:52:22;;;;;;;84.78;33.30;;;1.70;99.90;;;;;;4919411;29;20028;-86
2022/01/28 08:54:48;;;;;;;94.45;35.60;;;2.00;99.90;;;;;;4939693;29;20134;-85
2022/01/28 08:57:14;;;;;;;96.22;36.35;;;1.70;99.90;;;;;;4939602;29;20420;-88
2022/01/28 08:59:40;;;;;;;92.63;34.55;;;2.20;99.90;;;;;;4940097;29;20024;-86
2022/01/28 09:02:06;;;;;;;91.25;34.10;;;1.70;99.90;;;;;;4940015;29;20023;-88
2022/01/28 09:04:32;;;;;;;97.70;36.50;;;1.80;99.90;;;;;;4938761;29;20042;-91
2022/01/28 09:06:57;;;;;;;99.13;35.40;;;2.10;99.90;;;;;;4954918;29;20031;-92
2022/01/28 09:09:23;;;;;;;96.97;33.83;;;2.50;99.90;;;;;;4924321;29;20551;-92
2022/01/28 09:14:24;;;;;;;96.13;33.70;;;2.10;99.90;;;;;;4940231;29;20288;-92
2022/01/28 09:16:50;;;;;;;90.53;33.97;;;2.70;99.90;;;;;;4924022;29;20039;-90
2022/01/28 09:19:15;;;;;;;94.93;34.00;;;2.20;99.90;;;;;;4935755;29;20039;-91
2022/01/28 09:21:41;;;;;;;95.78;36.00;;;2.60;99.90;;;;;;4940939;29;20035;-91
2022/01/28 09:24:07;;;;;;;88.50;35.50;;;1.70;99.90;;;;;;4939077;29;20532;-91
2022/01/28 09:26:32;;;;;;;104.20;36.45;;;1.60;99.90;;;;;;4939808;29;20024;-90
2022/01/28 09:28:58;;;;;;;103.15;37.00;;;1.70;99.90;;;;;;4940157;29;20090;-90
2022/01/28 09:31:24;;;;;;;88.47;34.85;;;1.90;99.90;;;;;;4936381;29;20040;-91
2022/01/28 09:33:49;;;;;;;100.75;35.70;;;2.00;99.90;;;;;;4940033;29;20401;-90
2022/01/28 09:36:15;;;;;;;100.95;36.35;;;2.30;99.90;;;;;;4924057;29;20035;-91
2022/01/28 09:38:41;;;;;;;94.80;35.00;;;2.50;99.90;;;;;;4939518;29;20082;-90
2022/01/28 09:41:08;;;;;;;112.28;36.30;;;1.90;99.90;;;;;;4939636;29;20066;-91
2022/01/28 09:43:34;;;;;;;96.50;36.00;;;2.20;99.90;;;;;;4937812;29;20047;-91
2022/01/28 09:46:02;;;;;;;104.90;36.38;;;2.50;99.90;;;;;;4921386;29;20024;-91
2022/01/28 09:48:27;;;;;;;104.18;34.40;;;2.60;99.90;;;;;;4940144;29;20039;-92
2022/01/28 09:50:57;;;;;;;93.90;33.70;;;2.80;99.90;;;;;;4939825;29;20218;-91
2022/01/28 09:53:23;;;;;;;88.82;33.47;;;2.60;99.90;;;;;;4938973;29;20032;-91
2022/01/28 09:55:50;;;;;;;94.07;34.63;;;2.70;99.90;;;;;;4936156;29;20042;-92
2022/01/28 09:58:16;;;;;;;89.63;34.00;;;3.30;99.90;;;;;;4951119;29;20531;-91
2022/01/28 10:00:42;;;;;;;98.28;34.85;;;3.30;99.90;;;;;;4923698;29;20027;-92
2022/01/28 10:03:11;;;;;;;83.80;33.47;;;3.50;99.90;;;;;;4939311;29;20373;-91
2022/01/28 10:05:47;;;;;;;99.18;34.75;;;3.30;99.90;;;;;;4924986;29;20130;-91
2022/01/28 10:08:19;;;;;;;94.47;42.00;;;2.70;99.90;;;;;;4939240;29;20515;-92
2022/01/28 10:10:55;;;;;;;87.15;37.55;;;2.70;99.90;;;;;;4938976;29;20062;-91
2022/01/28 10:13:44;;;;;;;70.97;29.90;;;2.80;99.90;;;;;;4920537;29;20115;-92
2022/01/28 10:16:13;;;;;;;80.45;33.55;;;3.20;99.90;;;;;;4950540;29;20122;-92
2022/01/28 10:18:51;;;;;;;65.43;26.27;;;3.10;99.90;;;;;;4923532;29;20020;-91
2022/01/28 10:21:44;;;;;;;69.22;28.33;;;2.80;99.90;;;;;;4938864;29;20038;-92
2022/01/28 10:24:15;;;;;;;111.72;52.85;;;2.90;99.90;;;;;;4938530;29;20039;-92
2022/01/28 10:26:44;;;;;;;85.88;36.53;;;3.00;99.90;;;;;;4926024;29;20039;-91
2022/01/28 10:29:31;;;;;;;181.50;83.38;;;3.10;99.90;;;;;;4939624;29;20027;-91
2022/01/28 10:32:12;;;;;;;87.05;38.33;;;3.10;99.90;;;;;;4938962;29;20031;-92
2022/01/28 10:34:41;;;;;;;73.38;32.13;;;3.10;99.90;;;;;;4935431;29;20501;-91
2022/01/28 10:37:33;;;;;;;68.60;28.85;;;3.60;99.90;;;;;;4936294;29;20102;-92
2022/01/28 10:40:02;;;;;;;171.57;79.75;;;3.40;99.90;;;;;;4944575;29;20031;-91
2022/01/28 10:42:40;;;;;;;116.57;51.53;;;2.90;99.90;;;;;;4944852;29;20051;-91
2022/01/28 10:45:13;;;;;;;71.30;30.85;;;3.50;99.90;;;;;;4962767;29;20042;-91
2022/01/28 10:47:44;;;;;;;60.83;26.85;;;3.00;99.90;;;;;;4929876;29;20024;-91
2022/01/28 10:50:38;;;;;;;85.25;40.70;;;3.20;99.90;;;;;;4928078;29;20147;-92
2022/01/28 10:53:16;;;;;;;47.65;21.83;;;3.10;99.90;;;;;;4950101;29;20043;-92
2022/01/28 10:55:44;;;;;;;65.40;29.83;;;2.90;99.90;;;;;;4937861;29;20043;-91
2022/01/28 10:58:15;;;;;;;73.03;36.97;;;3.30;99.90;;;;;;4919675;29;20062;-92
2022/01/28 11:00:44;;;;;;;39.63;18.52;;;3.10;99.90;;;;;;4922751;29;20032;-91
2022/01/28 11:03:12;;;;;;;37.67;19.40;;;3.10;99.90;;;;;;4939123;29;20092;-92
2022/01/28 11:05:39;;;;;;;29.25;15.38;;;2.90;99.90;;;;;;4925092;29;20028;-91
2022/01/28 11:08:07;;;;;;;28.75;14.80;;;3.60;99.90;;;;;;4939182;29;20039;-92
2022/01/28 11:10:33;;;;;;;29.88;14.18;;;3.10;99.90;;;;;;4920676;29;20467;-92
2022/01/28 11:13:00;;;;;;;28.20;15.05;;;3.70;99.90;;;;;;4936812;29;20383;-91
2022/01/28 11:15:27;;;;;;;26.70;13.70;;;3.60;99.90;;;;;;4939005;29;20036;-91
2022/01/28 11:17:53;;;;;;;28.75;16.05;;;3.60;99.90;;;;;;4938969;29;20396;-91
2022/01/28 11:20:22;;;;;;;29.13;15.70;;;3.70;99.90;;;;;;4938295;29;20028;-91
2022/01/28 11:23:15;;;;;;;28.35;13.50;;;3.30;99.90;;;;;;4938758;29;20019;-91
2022/01/28 11:26:12;;;;;;;24.67;13.55;;;3.40;99.90;;;;;;4922887;29;20086;-92
2022/01/28 11:28:50;;;;;;;25.88;13.57;;;3.50;99.90;;;;;;4923810;29;20055;-91
2022/01/28 11:31:40;;;;;;;34.85;20.50;;;3.70;99.90;;;;;;4935251;29;20043;-91
2022/01/28 11:34:28;;;;;;;35.58;21.23;;;3.40;99.90;;;;;;4950535;28;20023;-91
2022/01/28 11:36:57;;;;;;;32.33;19.27;;;3.30;99.90;;;;;;4953686;29;20046;-92
2022/01/28 11:39:33;;;;;;;29.30;16.98;;;3.60;99.90;;;;;;4942197;29;20401;-91
2022/01/28 11:42:03;;;;;;;35.53;21.73;;;3.50;99.90;;;;;;4946457;29;20039;-92
2022/01/28 11:44:51;;;;;;;28.45;17.30;;;3.50;99.90;;;;;;4931657;29;20055;-92
2022/01/28 11:47:38;;;;;;;54.13;32.08;;;3.50;99.90;;;;;;4942199;29;20027;-92
2022/01/28 11:50:13;;;;;;;31.70;17.55;;;3.40;99.90;;;;;;4942217;29;20059;-91
2022/01/28 11:52:44;;;;;;;28.13;17.27;;;3.40;99.90;;;;;;4940400;29;20031;-91
2022/01/28 11:55:23;;;;;;;34.10;19.92;;;3.90;99.90;;;;;;4943879;29;20061;-91
2022/01/28 11:58:00;;;;;;;24.90;13.95;;;3.50;99.90;;;;;;4953750;29;20031;-91
2022/01/28 12:00:39;;;;;;;27.15;15.45;;;3.50;99.90;;;;;;4942946;29;20381;-92
2022/01/28 12:03:16;;;;;;;29.17;16.70;;;3.90;99.90;;;;;;4948081;29;20035;-91
2022/01/28 12:05:42;;;;;;;25.13;14.02;;;3.90;99.90;;;;;;4946472;29;20511;-92
2022/01/28 12:08:10;;;;;;;30.63;16.38;;;3.50;99.90;;;;;;4942048;29;20050;-91
2022/01/28 12:10:41;;;;;;;25.85;14.35;;;3.90;99.90;;;;;;4939763;29;20055;-91
2022/01/28 12:13:12;;;;;;;25.65;14.93;;;4.10;99.90;;;;;;4939285;29;20028;-91
2022/01/28 12:16:00;;;;;;;51.03;29.90;;;3.90;99.90;;;;;;4941922;29;20062;-91
2022/01/28 12:18:44;;;;;;;54.10;30.83;;;3.90;99.90;;;;;;4941089;29;20074;-92
2022/01/28 12:21:18;;;;;;;43.13;22.45;;;3.60;99.90;;;;;;4941771;29;20563;-92
2022/01/28 12:23:44;;;;;;;35.15;19.15;;;3.50;99.90;;;;;;4928139;29;20039;-92
2022/01/28 12:26:14;;;;;;;32.28;17.95;;;3.90;99.90;;;;;;4941670;29;20027;-92
2022/01/28 12:28:42;;;;;;;22.10;12.85;;;3.60;99.90;;;;;;4939515;29;20026;-92
2022/01/28 12:31:13;;;;;;;26.70;15.48;;;3.80;99.90;;;;;;4938949;29;20027;-92
2022/01/28 12:33:42;;;;;;;23.75;14.65;;;4.10;99.90;;;;;;4955743;29;20103;-92
2022/01/28 12:36:18;;;;;;;24.40;14.48;;;4.20;99.90;;;;;;4942451;29;20044;-92
2022/01/28 12:38:59;;;;;;;40.28;22.17;;;3.70;99.90;;;;;;4941676;29;20051;-91
2022/01/28 12:41:26;;;;;;;24.80;14.07;;;3.70;99.90;;;;;;4940855;29;20095;-92
2022/01/28 12:43:53;;;;;;;41.55;22.30;;;3.80;99.90;;;;;;4941244;29;20031;-91
2022/01/28 12:46:19;;;;;;;40.85;22.33;;;3.70;99.90;;;;;;4937011;29;20035;-92
2022/01/28 12:48:52;;;;;;;23.42;13.45;;;3.60;99.90;;;;;;4941703;29;20047;-92
2022/01/28 12:51:23;;;;;;;42.92;22.83;;;4.10;99.90;;;;;;4941178;29;20055;-92
2022/01/28 12:53:54;;;;;;;26.83;15.27;;;4.00;99.90;;;;;;4941116;29;20060;-92
2022/01/28 12:56:40;;;;;;;31.15;18.23;;;3.70;99.90;;;;;;4941254;29;20040;-93
2022/01/28 12:59:07;;;;;;;24.70;14.52;;;3.80;99.90;;;;;;4941710;29;20019;-93
2022/01/28 13:01:33;;;;;;;23.52;13.38;;;4.40;99.90;;;;;;4921405;29;20039;-93
2022/01/28 13:04:11;;;;;;;25.15;13.45;;;4.30;99.90;;;;;;4952114;29;20480;-92
2022/01/28 13:06:43;;;;;;;24.65;14.70;;;3.80;99.90;;;;;;4939881;29;20024;-94
2022/01/28 13:09:18;;;;;;;37.38;19.90;;;4.20;99.90;;;;;;4940755;29;20107;-93
2022/01/28 13:11:45;;;;;;;28.48;15.90;;;3.60;99.90;;;;;;4940667;29;20034;-94
2022/01/28 13:14:14;;;;;;;21.10;12.93;;;3.70;99.90;;;;;;4940338;29;20035;-94
2022/01/28 13:16:42;;;;;;;21.73;13.05;;;3.90;99.90;;;;;;4938017;29;20118;-93
2022/01/28 13:19:10;;;;;;;28.92;16.17;;;4.30;99.90;;;;;;4938201;29;20110;-93
2022/01/28 13:21:37;;;;;;;48.28;24.92;;;4.40;99.90;;;;;;4941666;29;20110;-93
2022/01/28 13:24:27;;;;;;;35.35;18.67;;;4.30;99.90;;;;;;4925577;29;20043;-93
2022/01/28 13:27:08;;;;;;;39.20;19.65;;;4.50;99.90;;;;;;4924388;29;20036;-93
2022/01/28 13:29:46;;;;;;;22.38;14.00;;;3.90;99.90;;;;;;4940162;29;20032;-92
2022/01/28 13:32:15;;;;;;;49.88;26.92;;;4.40;99.90;;;;;;4939996;29;20110;-93
2022/01/28 13:34:58;;;;;;;20.23;12.80;;;3.80;99.90;;;;;;4938227;29;20079;-93
2022/01/28 13:37:38;;;;;;;42.03;23.77;;;3.80;99.90;;;;;;4919920;29;20487;-93
2022/01/28 13:40:07;;;;;;;96.72;66.80;;;3.80;99.90;;;;;;4938059;29;20047;-93
2022/01/28 13:42:32;;;;;;;97.20;72.80;;;3.70;99.90;;;;;;4937194;29;20090;-93
2022/01/28 13:45:05;;;;;;;22.85;14.68;;;4.00;99.90;;;;;;4923858;29;20071;-93
2022/01/28 13:47:51;;;;;;;110.28;67.78;;;4.30;99.90;;;;;;4940229;29;20035;-93
2022/01/28 13:50:24;;;;;;;22.77;13.27;;;3.90;99.90;;;;;;4943746;29;20031;-93
2022/01/28 13:53:06;;;;;;;54.85;43.42;;;3.90;99.90;;;;;;4950566;29;20031;-93
2022/01/28 13:55:37;;;;;;;44.83;30.60;;;4.00;99.90;;;;;;4923337;29;20047;-93
2022/01/28 13:58:06;;;;;;;20.52;13.73;;;4.20;99.90;;;;;;4936901;29;20488;-93
2022/01/28 14:00:42;;;;;;;22.00;14.88;;;4.00;99.90;;;;;;4938846;29;20027;-93
2022/01/28 14:03:21;;;;;;;22.02;13.43;;;3.90;99.90;;;;;;4939823;29;20059;-93
2022/01/28 14:05:58;;;;;;;23.67;13.80;;;4.00;99.90;;;;;;4939673;29;20488;-93
2022/01/28 14:08:50;;;;;;;24.65;13.88;;;3.90;99.90;;;;;;4939298;29;20043;-94
2022/01/28 14:11:44;;;;;;;25.45;14.13;;;3.90;99.90;;;;;;4939386;29;20084;-93
2022/01/28 14:14:18;;;;;;;24.17;14.23;;;4.00;99.90;;;;;;4941273;29;20126;-93
2022/01/28 14:17:05;;;;;;;23.90;14.38;;;3.90;99.90;;;;;;4950993;29;20411;-93